Dubuque, IA (52001)

7:13 PM CST on February 09, 2016 (GMT -0600)
Eagle Valley | | Change Station
CLOSE
Current Station
Personal Weather Station
Location: Dubuque, IA
Elevation: 837 ft
Nearby Weather Stations

Elev 837 ft 42.54 °N, 90.66 °W | Updated 3 minutes ago

Clear
Clear
11.9 °F
Feels Like 12 °F
N
3.0
Wind Variable Wind from SE
Gusts 3.0 mph

Today
High -- | Low -- °F
--% Chance of Precip.
Yesterday
High -- | Low -- °F
Precip. -- in
Pressure 30.08 in
Visibility 10.0 miles
Clouds Clear
Windchill 12 °F
Dew Point 4 °F
Humidity 69%
Rainfall 0.00 in
Snow Depth Not available.
7:08 AM 5:26 PM
Waxing Crescent, 3% visible
METAR KDBQ 100053Z 33013KT 10SM CLR M12/M17 A3001 RMK AO2 SLP186 T11171167
Pressure 30.08 in
Visibility 10.0 miles
Clouds Clear
Windchill 12 °F
Dew Point 4 °F
Humidity 69%
Rainfall 0.00 in
Snow Depth Not available.
7:08 AM 5:26 PM
Waxing Crescent, 3% visible
METAR KDBQ 100053Z 33013KT 10SM CLR M12/M17 A3001 RMK AO2 SLP186 T11171167

10-Day Weather Forecast

Almanac

Astronomy

Feb. 09, 2016 Rise Set
Actual Time
Civil Twilight
Nautical Twilight
Astronomical Twilight
Moon
Length of Visible Light
Length of Day
Tomorrow will be .
, % of the Moon is Illuminated

Today's Extremes

State Highs State Lows

Community

WunderPhotos

Upload Photos

1,891,752 photos uploaded!

WunderBlog® & News

Nearby

Air Quality

  Air Quality AQ Index Pollutant
Not available.

Snow Depth

Station Depth Elevation

Earthquake Activity

City Distance Mag. Time & Date
Minimum magnitude displayed is 2.5.

Coastal Water Temperatures

Place Temperature

Stations

Nearby Weather Stations

Station Location Temp. Windchill Dew Point Humidity Wind Precip. Elev Updated Type
                   

Watches & Warnings

There are currently no watches in effect.